Time;durP1;ratioP1;P1;durP2;ratioP2;P2;SDS_P1;SDS_P2;PMS_P1;PMS_P2;Temp;Humidity;BMP_temperature;BMP_pressure;BME280_temperature;BME280_humidity;BME280_pressure;Samples;Min_cycle;Max_cycle;Signal;HPM_P1;HPM_P2
2022/07/18 00:00:42;;;;;;;5.25;1.60;;;20.70;63.20;;;;;;6197807;23;20099;-81
2022/07/18 00:03:12;;;;;;;2.90;1.70;;;20.60;64.20;;;;;;6172179;23;20009;-82
2022/07/18 00:05:42;;;;;;;4.97;1.40;;;20.40;64.30;;;;;;6225034;23;20005;-80
2022/07/18 00:08:08;;;;;;;3.33;1.60;;;20.80;64.60;;;;;;6197398;23;20001;-80
2022/07/18 00:10:55;;;;;;;6.20;2.72;;;20.40;64.70;;;;;;6223193;23;20008;-81
2022/07/18 00:13:36;;;;;;;6.60;2.47;;;20.40;63.90;;;;;;6199725;23;20466;-80
2022/07/18 00:16:08;;;;;;;4.45;1.67;;;20.50;64.10;;;;;;6222956;23;20009;-80
2022/07/18 00:18:40;;;;;;;4.65;1.58;;;20.30;64.00;;;;;;6202257;23;20013;-81
2022/07/18 00:21:57;;;;;;;3.00;1.60;;;20.20;63.90;;;;;;6228781;23;20041;-80
2022/07/18 00:24:37;;;;;;;8.85;2.75;;;20.20;64.80;;;;;;6224928;23;20009;-80
2022/07/18 00:27:11;;;;;;;4.15;1.73;;;20.20;64.10;;;;;;6202063;23;20012;-81
2022/07/18 00:29:43;;;;;;;3.72;2.05;;;22.40;65.50;;;;;;6200066;23;20019;-81
2022/07/18 00:32:13;;;;;;;;;;;20.00;65.20;;;;;;6201402;23;20001;-81
2022/07/18 00:34:46;;;;;;;;;;;20.20;65.00;;;;;;6203819;23;20361;-82
2022/07/18 00:37:17;;;;;;;2.72;1.50;;;20.20;64.30;;;;;;6205027;23;19908;-82
2022/07/18 00:40:19;;;;;;;4.07;1.50;;;20.20;64.30;;;;;;6205729;23;20009;-81
2022/07/18 00:43:13;;;;;;;4.00;1.60;;;20.10;64.20;;;;;;6228108;23;20008;-81
2022/07/18 00:45:52;;;;;;;3.38;1.65;;;20.00;64.20;;;;;;6177172;23;20343;-81
2022/07/18 00:48:24;;;;;;;5.13;1.98;;;20.00;64.80;;;;;;6201480;23;20008;-81
2022/07/18 00:50:54;;;;;;;3.95;1.80;;;20.00;64.50;;;;;;6225355;23;20031;-81
2022/07/18 00:53:29;;;;;;;3.38;1.48;;;20.00;64.60;;;;;;6200053;23;20087;-81
2022/07/18 00:56:02;;;;;;;3.53;1.50;;;20.00;65.10;;;;;;6176570;23;20100;-81
2022/07/18 00:58:32;;;;;;;4.07;1.60;;;19.90;64.40;;;;;;6177600;23;20011;-81
2022/07/18 01:03:49;;;;;;;3.00;1.50;;;19.80;64.70;;;;;;6206621;23;20039;-81
2022/07/18 01:06:19;;;;;;;3.70;1.70;;;19.90;64.90;;;;;;6204602;23;20008;-81
2022/07/18 01:08:54;;;;;;;4.65;1.65;;;19.80;65.00;;;;;;6205838;23;20023;-81
2022/07/18 01:11:23;;;;;;;3.03;1.48;;;19.80;64.90;;;;;;6228290;23;20000;-82
2022/07/18 01:13:56;;;;;;;5.85;2.10;;;19.80;65.10;;;;;;6180948;23;20022;-81
2022/07/18 01:16:28;;;;;;;4.30;1.60;;;19.60;65.40;;;;;;6204783;23;20023;-81
2022/07/18 01:18:57;;;;;;;6.18;1.67;;;19.70;65.30;;;;;;6231860;23;20077;-82
2022/07/18 01:21:24;;;;;;;3.00;1.50;;;19.70;65.30;;;;;;6230546;23;20027;-82
2022/07/18 01:23:52;;;;;;;5.32;1.70;;;19.70;65.90;;;;;;6203117;23;20014;-82
2022/07/18 01:26:26;;;;;;;8.27;3.03;;;19.60;65.50;;;;;;6230579;23;20016;-81
2022/07/18 01:29:00;;;;;;;3.00;1.45;;;19.50;66.60;;;;;;6232989;23;20012;-81
2022/07/18 01:31:33;;;;;;;4.25;1.70;;;19.40;65.90;;;;;;6231477;23;20068;-81
2022/07/18 01:34:10;;;;;;;4.32;1.65;;;20.30;66.30;;;;;;6205152;23;20056;-81
2022/07/18 01:36:38;;;;;;;;;;;19.60;66.00;;;;;;6229409;23;20343;-81
2022/07/18 01:39:25;;;;;;;2.30;1.50;;;19.40;66.60;;;;;;6226808;23;19945;-81
2022/07/18 01:42:05;;;;;;;4.55;2.00;;;19.50;66.60;;;;;;6201254;23;20082;-81
2022/07/18 01:44:36;;;;;;;4.93;1.70;;;19.40;66.50;;;;;;6174671;23;20008;-81
2022/07/18 01:47:19;;;;;;;5.43;2.13;;;19.30;66.20;;;;;;6227187;23;20023;-81
2022/07/18 01:49:50;;;;;;;2.47;1.30;;;19.30;66.20;;;;;;6226225;23;20003;-80
2022/07/18 01:52:18;;;;;;;3.75;1.75;;;19.40;66.50;;;;;;6201797;23;20005;-81
2022/07/18 01:54:50;;;;;;;4.03;1.80;;;19.30;66.60;;;;;;6208903;23;20093;-82
2022/07/18 01:57:21;;;;;;;2.92;1.65;;;19.30;67.10;;;;;;6207650;23;19993;-80
2022/07/18 01:59:51;;;;;;;2.78;1.30;;;19.20;67.30;;;;;;6213911;23;20017;-81
2022/07/18 02:02:17;;;;;;;3.85;1.70;;;19.20;66.90;;;;;;6199475;23;20005;-81
2022/07/18 02:05:01;;;;;;;3.20;1.70;;;;;;;;;;6223885;23;20004;-81
2022/07/18 02:07:33;;;;;;;2.60;1.45;;;19.20;66.40;;;;;;6198719;23;20060;-81
2022/07/18 02:10:11;;;;;;;2.65;1.38;;;19.40;67.10;;;;;;6224086;23;20067;-82
2022/07/18 02:12:42;;;;;;;3.80;1.70;;;19.20;67.00;;;;;;6199543;23;20012;-81
2022/07/18 02:15:17;;;;;;;3.33;1.40;;;19.10;66.90;;;;;;6225059;23;20478;-81
2022/07/18 02:17:44;;;;;;;2.38;1.40;;;19.00;67.10;;;;;;6224570;23;20503;-81
2022/07/18 02:20:14;;;;;;;3.10;1.63;;;19.10;67.10;;;;;;6199491;23;20022;-81
2022/07/18 02:22:43;;;;;;;3.33;1.45;;;19.00;67.30;;;;;;6224537;23;20016;-81
2022/07/18 02:25:12;;;;;;;4.28;1.65;;;19.00;67.20;;;;;;6225074;23;20008;-81
2022/07/18 02:27:41;;;;;;;3.23;1.50;;;19.00;67.20;;;;;;6226193;23;20000;-81
2022/07/18 02:30:12;;;;;;;4.00;1.65;;;19.00;67.10;;;;;;6199537;23;20004;-81
2022/07/18 02:32:40;;;;;;;5.90;1.70;;;19.00;67.50;;;;;;6225598;23;20013;-81
2022/07/18 02:35:11;;;;;;;2.72;1.40;;;18.90;67.30;;;;;;6199654;23;20016;-81
2022/07/18 02:37:41;;;;;;;3.58;1.70;;;18.80;67.80;;;;;;6227379;23;20095;-81
2022/07/18 02:40:13;;;;;;;2.83;1.63;;;18.80;68.20;;;;;;6202393;23;20019;-81
2022/07/18 02:42:41;;;;;;;3.45;1.67;;;18.90;68.10;;;;;;6204317;23;20024;-81
2022/07/18 02:45:08;;;;;;;4.05;1.80;;;18.90;67.50;;;;;;6204090;23;20043;-81
2022/07/18 02:47:39;;;;;;;3.30;1.52;;;18.90;67.80;;;;;;6229993;23;20030;-81
2022/07/18 02:50:09;;;;;;;3.95;1.42;;;18.40;67.30;;;;;;6202492;23;20007;-81
2022/07/18 02:52:38;;;;;;;;;;;18.90;67.60;;;;;;6229054;23;20009;-81
2022/07/18 02:55:12;;;;;;;3.17;1.50;;;18.80;67.80;;;;;;6201891;23;19903;-81
2022/07/18 02:57:44;;;;;;;4.45;1.52;;;18.80;67.70;;;;;;6226732;23;20078;-81
2022/07/18 03:00:14;;;;;;;3.10;1.60;;;18.80;67.80;;;;;;6225053;23;20031;-80
2022/07/18 03:02:41;;;;;;;11.60;1.65;;;18.80;67.70;;;;;;6198242;23;20024;-81
2022/07/18 03:05:09;;;;;;;4.38;1.88;;;18.70;67.80;;;;;;6198314;23;20000;-81
2022/07/18 03:07:35;;;;;;;3.13;1.48;;;17.80;67.30;;;;;;6197882;23;20012;-80
2022/07/18 03:10:03;;;;;;;3.30;1.75;;;18.80;67.80;;;;;;6198320;23;20000;-81
2022/07/18 03:12:31;;;;;;;3.08;1.85;;;16.70;66.60;;;;;;6222601;23;20008;-81
2022/07/18 03:14:59;;;;;;;3.45;1.50;;;18.70;67.80;;;;;;6198476;23;20008;-80
2022/07/18 03:17:27;;;;;;;3.28;1.40;;;18.70;67.60;;;;;;6199026;23;20070;-80
2022/07/18 03:20:01;;;;;;;2.33;1.20;;;18.60;67.40;;;;;;6204007;23;20020;-81
2022/07/18 03:22:29;;;;;;;2.45;1.45;;;18.60;67.80;;;;;;6196769;23;20009;-81
2022/07/18 03:24:56;;;;;;;5.22;1.98;;;18.60;67.90;;;;;;6170317;23;20475;-81
2022/07/18 03:27:24;;;;;;;4.05;1.70;;;18.60;68.00;;;;;;6196705;23;20046;-81
2022/07/18 03:29:51;;;;;;;3.05;1.60;;;18.60;68.00;;;;;;6198078;23;20095;-81
2022/07/18 03:32:19;;;;;;;5.60;1.40;;;18.60;68.30;;;;;;6225976;23;20008;-80
2022/07/18 03:34:46;;;;;;;3.53;1.70;;;18.50;68.40;;;;;;6200440;23;20036;-81
2022/07/18 03:37:14;;;;;;;2.75;1.40;;;18.50;68.50;;;;;;6226741;23;20012;-78
2022/07/18 03:39:45;;;;;;;4.00;1.45;;;18.50;68.60;;;;;;6224053;23;20067;-81
2022/07/18 03:42:11;;;;;;;3.17;1.40;;;18.40;68.70;;;;;;6215436;23;20120;-80
2022/07/18 03:44:36;;;;;;;3.53;1.70;;;18.40;68.80;;;;;;6212360;23;20001;-81
2022/07/18 03:47:02;;;;;;;4.07;1.42;;;18.40;68.80;;;;;;6188682;23;20035;-80
2022/07/18 03:49:28;;;;;;;4.78;1.63;;;18.40;68.70;;;;;;6187661;23;20000;-81
2022/07/18 03:51:55;;;;;;;2.92;1.50;;;18.40;68.80;;;;;;6211975;23;20024;-79
2022/07/18 03:54:22;;;;;;;4.50;1.60;;;18.30;69.00;;;;;;6217214;23;20316;-80
2022/07/18 03:56:48;;;;;;;5.13;1.73;;;18.40;69.20;;;;;;6186773;23;20004;-79
2022/07/18 03:59:13;;;;;;;3.22;1.55;;;18.40;69.10;;;;;;6189575;23;20017;-80
2022/07/18 04:01:39;;;;;;;4.95;1.55;;;18.30;69.20;;;;;;6188100;23;20072;-80
2022/07/18 04:04:05;;;;;;;4.82;1.70;;;18.30;69.40;;;;;;6213134;23;20027;-79
2022/07/18 04:06:31;;;;;;;4.50;1.60;;;18.30;69.70;;;;;;6213953;23;20525;-80
2022/07/18 04:08:56;;;;;;;7.43;1.92;;;18.30;70.10;;;;;;6211766;23;20039;-80
2022/07/18 04:11:23;;;;;;;7.25;2.00;;;18.30;70.30;;;;;;6215960;23;20058;-80
2022/07/18 04:13:53;;;;;;;7.10;1.90;;;18.20;71.10;;;;;;6215438;23;20028;-80
2022/07/18 04:16:20;;;;;;;4.85;1.90;;;18.20;70.90;;;;;;6188259;23;20495;-80
2022/07/18 04:18:46;;;;;;;4.45;2.03;;;18.20;70.30;;;;;;6188650;23;20416;-80
2022/07/18 04:21:12;;;;;;;3.58;1.63;;;18.20;69.90;;;;;;6189053;23;20067;-80
2022/07/18 04:23:38;;;;;;;7.47;1.90;;;18.30;69.90;;;;;;6189726;23;20072;-79
2022/07/18 04:26:04;;;;;;;4.43;1.90;;;18.20;69.70;;;;;;6190670;23;20047;-81
2022/07/18 04:28:30;;;;;;;4.50;1.52;;;18.30;69.70;;;;;;6189970;23;20043;-80
2022/07/18 04:30:56;;;;;;;2.88;1.60;;;18.30;69.60;;;;;;6213569;23;20074;-80
2022/07/18 04:33:22;;;;;;;3.40;1.48;;;18.30;69.70;;;;;;6190189;23;20012;-80
2022/07/18 04:35:49;;;;;;;5.38;1.83;;;18.20;69.70;;;;;;6213677;23;20008;-80
2022/07/18 04:38:16;;;;;;;3.80;1.45;;;18.20;69.60;;;;;;6199880;23;20040;-80
2022/07/18 04:40:47;;;;;;;2.85;1.30;;;18.20;69.60;;;;;;6179801;23;20431;-80
2022/07/18 04:43:17;;;;;;;3.33;1.50;;;18.30;69.00;;;;;;6181466;23;20096;-80
2022/07/18 04:45:47;;;;;;;5.20;1.50;;;18.30;69.40;;;;;;6202931;23;20020;-79
2022/07/18 04:48:17;;;;;;;4.43;1.50;;;18.30;69.50;;;;;;6178639;23;20286;-80
2022/07/18 04:50:46;;;;;;;4.68;1.60;;;18.30;69.40;;;;;;6200022;23;20000;-80
2022/07/18 04:53:14;;;;;;;3.45;1.55;;;18.40;69.00;;;;;;6176577;23;20032;-80
2022/07/18 04:55:44;;;;;;;4.03;1.80;;;18.30;69.40;;;;;;6202826;23;20008;-80
2022/07/18 04:58:43;;;;;;;;;;;18.40;69.60;;;;;;6205450;23;20091;-80
2022/07/18 05:13:40;;;;;;;6.18;1.95;;;18.80;68.60;;;;;;5916212;24;20024;-81
2022/07/18 05:17:13;;;;;;;4.88;1.85;;;18.80;68.30;;;;;;5895015;24;20023;-80
2022/07/18 05:36:36;;;;;;;4.78;1.50;;;22.70;59.40;;;;;;5940696;24;20083;-83
2022/07/18 05:39:03;;;;;;;2.40;1.38;;;23.70;57.70;;;;;;6051397;23;20005;-84
2022/07/18 05:41:29;;;;;;;5.10;1.58;;;24.50;56.50;;;;;;6215564;23;20008;-84
2022/07/18 05:43:54;;;;;;;6.30;1.58;;;25.00;55.40;;;;;;6214062;23;20012;-84
2022/07/18 05:46:20;;;;;;;4.45;1.40;;;;;;;;;;6171010;23;20004;-83
2022/07/18 05:48:46;;;;;;;3.90;1.55;;;25.50;53.50;;;;;;6192426;23;20004;-83
2022/07/18 05:51:12;;;;;;;7.07;1.90;;;26.60;55.10;;;;;;6219281;23;20220;-83
2022/07/18 05:53:38;;;;;;;4.20;1.50;;;25.40;53.70;;;;;;6218512;23;20027;-85
2022/07/18 05:56:04;;;;;;;5.70;1.52;;;25.50;54.00;;;;;;6196424;23;20009;-82
2022/07/18 05:58:30;;;;;;;5.53;1.73;;;25.50;53.80;;;;;;6220049;23;20059;-82
2022/07/18 06:00:55;;;;;;;8.23;2.05;;;25.90;53.20;;;;;;6195574;23;20008;-83
2022/07/18 06:03:21;;;;;;;2.88;1.50;;;25.80;53.10;;;;;;6192222;23;20020;-83
2022/07/18 06:05:47;;;;;;;7.90;1.70;;;;;;;;;;6225268;23;19997;-83
2022/07/18 06:08:13;;;;;;;4.90;1.58;;;26.20;52.50;;;;;;6199082;23;20096;-81
2022/07/18 06:10:38;;;;;;;5.93;1.67;;;26.00;53.10;;;;;;6225887;23;20316;-83
2022/07/18 06:13:04;;;;;;;3.63;1.42;;;26.50;52.60;;;;;;6191988;23;20072;-83
2022/07/18 06:15:30;;;;;;;5.55;1.52;;;26.30;52.20;;;;;;6217009;23;20079;-83
2022/07/18 06:17:56;;;;;;;2.80;1.40;;;26.50;52.00;;;;;;6215789;23;20088;-83
2022/07/18 06:20:22;;;;;;;4.28;1.50;;;26.00;52.70;;;;;;6221251;23;20024;-82
2022/07/18 06:22:48;;;;;;;5.53;1.40;;;26.00;52.90;;;;;;6220073;23;20039;-82
2022/07/18 06:25:14;;;;;;;4.30;1.48;;;26.00;52.40;;;;;;6217650;23;20009;-82
2022/07/18 06:27:39;;;;;;;4.95;1.60;;;25.70;52.80;;;;;;6220322;23;20004;-81
2022/07/18 06:30:07;;;;;;;4.20;1.52;;;25.50;53.20;;;;;;6218248;23;20001;-81
2022/07/18 06:32:32;;;;;;;6.05;1.63;;;25.30;53.20;;;;;;6190440;23;20147;-81
2022/07/18 06:34:58;;;;;;;5.60;1.60;;;25.00;53.40;;;;;;6218251;23;20008;-81
2022/07/18 06:37:24;;;;;;;3.83;1.40;;;25.30;53.20;;;;;;6226057;23;20039;-81
2022/07/18 06:39:53;;;;;;;5.38;1.45;;;25.10;53.40;;;;;;6203171;23;20004;-80
2022/07/18 06:42:18;;;;;;;6.25;1.95;;;25.10;53.60;;;;;;6228847;23;20007;-80
2022/07/18 06:44:44;;;;;;;8.65;1.70;;;24.90;53.90;;;;;;6226026;23;20008;-80
2022/07/18 06:47:13;;;;;;;7.38;1.83;;;24.70;54.50;;;;;;6230585;23;20019;-82
2022/07/18 06:49:39;;;;;;;2.30;1.10;;;;;;;;;;6238534;23;20007;-81
2022/07/18 06:52:04;;;;;;;3.80;1.20;;;24.80;53.40;;;;;;6204148;23;20035;-81
2022/07/18 06:54:33;;;;;;;7.28;1.85;;;24.90;53.90;;;;;;6231816;23;19996;-81
2022/07/18 06:56:59;;;;;;;4.55;1.75;;;;;;;;;;6205212;23;20031;-81
2022/07/18 06:59:25;;;;;;;3.80;1.35;;;;;;;;;;6230089;23;20000;-81
2022/07/18 07:01:52;;;;;;;4.47;2.28;;;;;;;;;;6205281;23;20012;-80
2022/07/18 07:04:18;;;;;;;7.85;1.52;;;24.50;54.10;;;;;;6205515;23;20008;-81
2022/07/18 07:06:44;;;;;;;6.20;1.70;;;24.20;54.30;;;;;;6207823;23;20226;-81
2022/07/18 07:09:11;;;;;;;3.92;1.30;;;24.80;55.40;;;;;;6234223;23;20001;-81
2022/07/18 07:11:38;;;;;;;5.50;1.70;;;;;;;;;;6237520;23;20020;-81
2022/07/18 07:14:04;;;;;;;4.78;1.65;;;24.50;54.80;;;;;;6211836;23;20016;-81
2022/07/18 07:16:30;;;;;;;4.53;1.45;;;24.10;55.90;;;;;;6208341;23;20004;-81
2022/07/18 07:18:56;;;;;;;4.72;1.45;;;24.40;56.10;;;;;;6208083;23;20005;-81
2022/07/18 07:21:22;;;;;;;3.00;1.20;;;24.40;55.60;;;;;;6232155;23;20004;-81
2022/07/18 07:23:48;;;;;;;7.15;1.95;;;26.00;56.90;;;;;;6232073;23;20005;-81
2022/07/18 07:26:14;;;;;;;3.50;1.33;;;24.50;55.60;;;;;;6230947;23;20007;-82
2022/07/18 07:28:40;;;;;;;7.68;1.60;;;24.70;55.60;;;;;;6231569;23;20008;-81
2022/07/18 07:31:06;;;;;;;4.10;1.60;;;24.70;54.90;;;;;;6225330;23;20005;-81
2022/07/18 07:33:32;;;;;;;5.97;1.55;;;24.60;55.40;;;;;;6224150;23;20004;-80
2022/07/18 07:35:58;;;;;;;6.85;1.85;;;24.90;54.60;;;;;;6196206;23;20011;-81
2022/07/18 07:38:27;;;;;;;2.72;1.20;;;25.00;54.90;;;;;;6219700;23;20013;-81
2022/07/18 07:40:54;;;;;;;5.03;1.25;;;25.00;54.90;;;;;;6221700;23;20001;-80
2022/07/18 07:43:20;;;;;;;4.80;1.50;;;25.10;53.90;;;;;;6171226;23;20537;-81
2022/07/18 07:45:48;;;;;;;4.30;1.40;;;25.30;54.10;;;;;;6221531;23;20000;-80
2022/07/18 07:48:15;;;;;;;7.90;2.00;;;25.30;54.60;;;;;;6195638;23;20088;-79
2022/07/18 07:50:41;;;;;;;7.47;1.30;;;25.40;55.10;;;;;;6195487;23;20011;-80
2022/07/18 07:53:08;;;;;;;4.97;1.50;;;25.50;53.90;;;;;;6220933;23;20031;-79
2022/07/18 07:55:34;;;;;;;8.55;1.30;;;25.70;53.70;;;;;;6221591;23;20005;-80
2022/07/18 07:58:00;;;;;;;2.85;1.52;;;25.80;53.60;;;;;;6221089;23;20412;-79
2022/07/18 08:00:27;;;;;;;4.13;1.30;;;24.90;52.80;;;;;;6221514;23;20008;-80
2022/07/18 08:02:58;;;;;;;4.65;1.27;;;26.90;55.00;;;;;;6194684;23;20398;-79
2022/07/18 08:05:25;;;;;;;7.45;1.27;;;27.10;54.60;;;;;;6194155;23;20439;-80
2022/07/18 08:07:51;;;;;;;5.72;1.20;;;26.20;53.10;;;;;;6222257;23;20050;-80
2022/07/18 08:10:17;;;;;;;3.30;1.27;;;26.40;52.90;;;;;;6221139;23;20421;-80
2022/07/18 08:12:43;;;;;;;2.55;1.25;;;26.30;52.30;;;;;;6193859;23;20355;-80
2022/07/18 08:15:09;;;;;;;2.97;1.20;;;26.50;52.20;;;;;;6218709;23;20058;-79
2022/07/18 08:17:36;;;;;;;3.92;1.30;;;26.40;52.90;;;;;;6221454;23;20442;-80
2022/07/18 08:20:03;;;;;;;3.03;1.20;;;26.50;52.20;;;;;;6222236;23;20439;-80
2022/07/18 08:22:29;;;;;;;3.88;1.35;;;24.90;51.80;;;;;;6220846;23;20458;-81
2022/07/18 08:24:54;;;;;;;3.33;1.52;;;26.80;52.40;;;;;;6221289;23;20059;-80
2022/07/18 08:27:20;;;;;;;3.75;1.08;;;26.80;52.60;;;;;;6220235;23;20000;-80
2022/07/18 08:29:46;;;;;;;4.68;1.42;;;27.00;52.40;;;;;;6222382;23;20027;-79
2022/07/18 08:32:13;;;;;;;4.70;1.55;;;27.20;52.30;;;;;;6219845;23;20001;-79
2022/07/18 08:34:39;;;;;;;17.13;1.65;;;27.30;51.60;;;;;;6219906;23;20005;-79
2022/07/18 08:37:05;;;;;;;4.40;1.52;;;27.40;50.80;;;;;;6219996;23;20063;-80
2022/07/18 08:39:31;;;;;;;6.32;1.35;;;27.40;50.60;;;;;;6198107;23;20335;-80
2022/07/18 08:42:01;;;;;;;2.80;1.25;;;27.50;50.30;;;;;;6220974;23;20030;-80
2022/07/18 08:44:31;;;;;;;2.92;0.98;;;27.50;50.10;;;;;;6195713;23;20008;-80
2022/07/18 08:46:58;;;;;;;4.30;1.05;;;27.60;50.50;;;;;;6191283;23;20387;-80
2022/07/18 08:49:24;;;;;;;4.55;1.42;;;27.80;50.60;;;;;;6190273;23;20031;-81
2022/07/18 08:51:51;;;;;;;6.28;1.30;;;27.90;50.40;;;;;;6218108;23;20012;-81
2022/07/18 08:54:17;;;;;;;2.10;1.25;;;28.10;50.20;;;;;;6223530;23;20028;-80
2022/07/18 08:56:42;;;;;;;4.28;1.40;;;28.20;50.10;;;;;;6224726;23;20024;-81
2022/07/18 08:59:08;;;;;;;5.60;1.30;;;28.30;49.90;;;;;;6224438;23;20000;-82
2022/07/18 09:01:34;;;;;;;4.70;1.48;;;28.40;50.10;;;;;;6222966;23;20047;-82
2022/07/18 09:04:16;;;;;;;3.28;1.50;;;28.50;49.40;;;;;;6196926;23;20012;-78
2022/07/18 09:06:49;;;;;;;4.88;1.20;;;28.70;49.10;;;;;;6221844;23;20072;-81
2022/07/18 09:09:17;;;;;;;7.65;1.48;;;28.90;49.00;;;;;;6201210;23;20019;-80
2022/07/18 09:11:54;;;;;;;3.45;1.33;;;28.90;48.30;;;;;;6192093;23;20043;-81
2022/07/18 09:14:34;;;;;;;2.28;1.05;;;29.00;48.50;;;;;;6193711;23;20114;-81
2022/07/18 09:17:04;;;;;;;;;;;29.00;48.50;;;;;;6190723;23;20067;-81
2022/07/18 09:19:30;;;;;;;3.53;1.40;;;29.10;48.30;;;;;;6216843;23;20314;-82
2022/07/18 09:22:21;;;;;;;2.90;1.40;;;29.20;48.60;;;;;;6216395;23;20139;-81
2022/07/18 09:24:57;;;;;;;2.75;1.08;;;29.30;47.40;;;;;;6170232;23;20008;-82
2022/07/18 09:27:25;;;;;;;3.33;1.23;;;29.40;47.60;;;;;;6227181;23;19997;-81
2022/07/18 09:30:16;;;;;;;5.55;1.42;;;29.40;46.70;;;;;;6197645;23;20011;-82
2022/07/18 09:32:47;;;;;;;4.22;1.55;;;29.50;46.50;;;;;;6209101;23;20009;-81
2022/07/18 09:35:23;;;;;;;2.85;1.10;;;29.60;46.80;;;;;;6219762;23;20028;-82
2022/07/18 09:38:28;;;;;;;4.30;1.33;;;29.70;46.40;;;;;;6197567;23;20117;-82
2022/07/18 09:40:57;;;;;;;3.63;1.35;;;29.80;45.70;;;;;;6227990;23;20005;-81
2022/07/18 09:43:26;;;;;;;8.27;1.50;;;29.70;45.40;;;;;;6227041;23;20005;-81
2022/07/18 09:45:54;;;;;;;4.53;1.40;;;29.80;45.70;;;;;;6229673;23;20080;-82
2022/07/18 09:48:22;;;;;;;11.00;1.30;;;29.80;46.30;;;;;;6200026;23;20008;-83
2022/07/18 09:50:58;;;;;;;6.63;1.48;;;29.90;45.80;;;;;;6220950;23;20004;-84
2022/07/18 09:53:31;;;;;;;2.63;1.20;;;30.00;46.40;;;;;;6223899;23;20365;-82
2022/07/18 09:56:08;;;;;;;4.38;1.38;;;30.30;46.60;;;;;;6195788;23;20088;-83
2022/07/18 09:58:40;;;;;;;3.67;1.30;;;30.40;45.30;;;;;;6193488;23;20008;-82
2022/07/18 10:01:07;;;;;;;3.40;1.40;;;30.50;45.20;;;;;;6195608;23;20091;-82
2022/07/18 10:03:33;;;;;;;2.92;1.27;;;30.60;45.10;;;;;;6220081;23;20001;-82
2022/07/18 10:06:00;;;;;;;4.05;1.35;;;30.60;44.80;;;;;;6195144;23;20004;-80
2022/07/18 10:08:29;;;;;;;3.35;1.23;;;30.70;44.60;;;;;;6197069;23;20036;-83
2022/07/18 10:10:59;;;;;;;3.85;1.15;;;30.80;43.60;;;;;;6194891;23;20012;-83
2022/07/18 10:13:26;;;;;;;3.00;1.25;;;30.80;45.00;;;;;;6221372;23;20015;-82
2022/07/18 10:15:52;;;;;;;2.00;1.25;;;30.80;44.00;;;;;;6223746;23;20026;-82
2022/07/18 10:18:23;;;;;;;4.07;1.38;;;30.90;45.00;;;;;;6222427;23;20009;-82
2022/07/18 10:21:09;;;;;;;5.68;1.58;;;31.00;45.30;;;;;;6191930;23;20016;-82
2022/07/18 10:23:45;;;;;;;2.38;1.10;;;31.30;45.50;;;;;;6195588;23;20458;-82
2022/07/18 10:26:13;;;;;;;3.67;1.40;;;31.30;44.40;;;;;;6217407;23;20055;-81
2022/07/18 10:28:58;;;;;;;2.95;1.42;;;31.30;44.20;;;;;;6191797;23;20013;-82
2022/07/18 10:31:38;;;;;;;2.17;1.50;;;31.60;44.90;;;;;;6191172;23;20116;-82
2022/07/18 10:34:09;;;;;;;2.92;1.40;;;31.60;43.80;;;;;;6195624;23;20055;-82
2022/07/18 10:36:42;;;;;;;3.10;1.20;;;31.60;43.20;;;;;;6220927;23;20012;-81
2022/07/18 10:39:23;;;;;;;2.80;1.30;;;31.60;43.60;;;;;;6197213;23;20375;-82
2022/07/18 10:41:57;;;;;;;6.93;1.60;;;31.50;43.80;;;;;;6199372;23;20031;-81
2022/07/18 10:44:29;;;;;;;1.85;1.08;;;31.50;43.90;;;;;;6198457;23;20051;-81
2022/07/18 10:47:09;;;;;;;2.25;1.35;;;31.60;43.40;;;;;;6198814;23;20009;-82
2022/07/18 10:49:47;;;;;;;3.70;1.35;;;31.80;44.00;;;;;;6199816;23;20007;-82
2022/07/18 10:52:25;;;;;;;3.67;1.42;;;31.90;44.00;;;;;;6226916;23;20001;-81
2022/07/18 10:55:06;;;;;;;2.72;1.40;;;31.90;42.60;;;;;;6225685;23;20020;-80
2022/07/18 21:28:04;;;;;;;9.95;3.65;;;26.00;59.90;;;;;;5102984;27;20112;-80
2022/07/18 21:30:30;;;;;;;6.32;3.83;;;26.00;60.60;;;;;;5076807;28;20051;-80
2022/07/18 21:32:55;;;;;;;7.60;3.35;;;25.90;61.10;;;;;;5113113;27;20564;-81
2022/07/18 21:35:22;;;;;;;9.07;2.97;;;25.90;61.20;;;;;;5109912;27;20024;-81
2022/07/18 21:37:48;;;;;;;7.60;3.13;;;25.80;60.90;;;;;;5096922;28;20122;-82
2022/07/18 21:40:15;;;;;;;6.80;2.60;;;25.80;60.90;;;;;;5092992;28;20020;-83
2022/07/18 21:42:43;;;;;;;9.32;5.25;;;25.70;60.60;;;;;;5101284;28;20032;-81
2022/07/18 21:45:09;;;;;;;4.32;2.88;;;25.60;60.60;;;;;;5094516;28;21829;-81
2022/07/18 21:47:35;;;;;;;6.45;2.97;;;25.50;60.60;;;;;;5097540;28;20419;-80
2022/07/18 21:50:00;;;;;;;7.75;2.78;;;25.40;60.30;;;;;;5098626;28;20050;-82
2022/07/18 21:52:26;;;;;;;6.20;2.53;;;25.30;60.40;;;;;;5097092;28;20032;-82
2022/07/18 21:54:52;;;;;;;6.13;2.80;;;25.30;60.90;;;;;;5094260;28;20028;-82
2022/07/18 21:57:19;;;;;;;6.07;2.97;;;25.20;61.00;;;;;;5095342;28;20504;-82
2022/07/18 21:59:54;;;;;;;4.95;2.72;;;25.10;61.00;;;;;;5093940;28;20080;-82
2022/07/18 22:02:21;;;;;;;6.38;2.85;;;25.10;61.40;;;;;;5094457;28;20085;-81
2022/07/18 22:04:47;;;;;;;7.38;3.30;;;25.00;61.70;;;;;;5091607;28;20043;-80
2022/07/18 22:07:13;;;;;;;6.80;2.83;;;25.00;61.80;;;;;;5090903;28;20027;-81
2022/07/18 22:09:39;;;;;;;5.10;2.45;;;24.90;61.90;;;;;;5095870;28;20051;-81
2022/07/18 22:12:06;;;;;;;4.03;3.00;;;24.90;62.10;;;;;;5090551;28;20040;-80
2022/07/18 22:14:32;;;;;;;4.63;3.22;;;24.90;62.50;;;;;;5094298;28;20052;-82
2022/07/18 22:16:58;;;;;;;5.95;3.10;;;24.80;63.00;;;;;;5094236;28;20164;-82
2022/07/18 22:19:23;;;;;;;8.05;3.47;;;24.80;63.10;;;;;;5094605;28;20088;-82
2022/07/18 22:21:49;;;;;;;5.72;3.70;;;24.70;63.40;;;;;;5097660;28;20078;-82
2022/07/18 22:24:15;;;;;;;6.88;3.20;;;24.70;64.30;;;;;;5093157;28;20316;-82
2022/07/18 22:26:41;;;;;;;10.70;4.68;;;24.60;64.20;;;;;;5097744;28;20568;-82
2022/07/18 22:29:07;;;;;;;7.53;4.00;;;24.60;64.50;;;;;;5088867;28;20130;-83
2022/07/18 22:31:33;;;;;;;6.22;4.25;;;24.60;64.60;;;;;;5098420;28;20032;-82
2022/07/18 22:33:58;;;;;;;6.88;3.38;;;24.50;64.80;;;;;;5092408;28;20567;-83
2022/07/18 22:36:24;;;;;;;9.38;3.50;;;24.40;64.90;;;;;;5111850;27;20130;-82
2022/07/18 22:38:50;;;;;;;6.47;3.65;;;24.40;64.90;;;;;;5080978;28;20415;-82
2022/07/18 22:41:16;;;;;;;4.38;3.20;;;24.30;65.20;;;;;;5081176;28;20039;-83
2022/07/18 22:43:42;;;;;;;6.40;2.97;;;24.20;65.20;;;;;;5077667;28;20488;-82
2022/07/18 22:46:08;;;;;;;7.45;2.50;;;24.20;64.80;;;;;;5082761;28;20111;-84
2022/07/18 22:48:34;;;;;;;7.53;3.22;;;24.10;64.60;;;;;;5085935;28;20031;-83
2022/07/18 22:50:59;;;;;;;8.52;4.10;;;24.10;64.30;;;;;;5083392;28;20017;-82
2022/07/18 22:53:25;;;;;;;7.13;2.90;;;24.10;64.90;;;;;;5078033;28;20020;-83
2022/07/18 22:55:51;;;;;;;14.98;6.80;;;24.00;64.90;;;;;;5079941;28;20031;-81
2022/07/18 22:58:17;;;;;;;6.47;2.90;;;24.00;65.00;;;;;;5088129;22;20036;-82
2022/07/18 23:00:43;;;;;;;6.32;2.95;;;24.00;65.20;;;;;;5080950;28;20053;-83
2022/07/18 23:03:09;;;;;;;6.93;3.00;;;23.90;65.10;;;;;;5066581;28;20058;-82
2022/07/18 23:05:35;;;;;;;9.63;4.30;;;23.90;65.30;;;;;;5111408;22;20076;-81
2022/07/18 23:08:04;;;;;;;4.60;3.17;;;23.80;65.50;;;;;;5093552;28;20039;-82
2022/07/18 23:10:34;;;;;;;8.83;3.67;;;23.70;65.70;;;;;;5095295;28;20016;-82
2022/07/18 23:13:00;;;;;;;7.93;3.85;;;23.70;66.20;;;;;;5105037;28;20254;-83
2022/07/18 23:15:27;;;;;;;9.02;5.78;;;23.80;66.50;;;;;;5091807;28;20058;-82
2022/07/18 23:17:53;;;;;;;7.05;3.33;;;23.60;66.30;;;;;;5085841;28;20074;-82
2022/07/18 23:20:19;;;;;;;11.65;5.68;;;23.60;66.10;;;;;;5084268;28;20032;-82
2022/07/18 23:22:45;;;;;;;6.32;3.78;;;23.50;66.10;;;;;;5100467;28;20036;-81
2022/07/18 23:25:12;;;;;;;7.53;4.80;;;23.50;66.40;;;;;;5095492;28;20044;-82
2022/07/18 23:27:38;;;;;;;7.88;3.88;;;23.40;66.50;;;;;;5098424;28;20085;-82
2022/07/18 23:30:09;;;;;;;6.88;3.40;;;23.30;66.70;;;;;;5090908;28;20024;-82
2022/07/18 23:32:34;;;;;;;6.25;3.08;;;23.30;66.90;;;;;;5081049;28;20032;-81
2022/07/18 23:35:01;;;;;;;8.93;3.00;;;23.30;66.90;;;;;;5083302;28;20028;-82
2022/07/18 23:37:27;;;;;;;5.00;2.97;;;23.30;66.70;;;;;;5082664;28;20039;-82
2022/07/18 23:39:52;;;;;;;5.55;2.88;;;23.30;66.70;;;;;;5079561;28;20032;-81
2022/07/18 23:42:19;;;;;;;10.52;3.88;;;23.20;66.90;;;;;;5084853;28;20032;-81
2022/07/18 23:44:44;;;;;;;5.55;2.78;;;23.20;67.20;;;;;;5083075;28;20032;-82
2022/07/18 23:47:10;;;;;;;4.03;2.70;;;23.10;67.20;;;;;;5083830;28;20032;-82
2022/07/18 23:49:36;;;;;;;5.18;2.80;;;23.10;67.40;;;;;;5075831;28;20039;-81
2022/07/18 23:52:02;;;;;;;7.47;3.70;;;23.00;67.80;;;;;;5077919;28;20021;-82
2022/07/18 23:54:28;;;;;;;7.05;3.55;;;22.90;68.00;;;;;;5083050;28;20028;-82
2022/07/18 23:56:54;;;;;;;12.10;3.53;;;22.90;68.60;;;;;;5082148;28;20170;-82
2022/07/18 23:59:19;;;;;;;7.72;3.08;;;22.80;68.70;;;;;;5084442;28;20115;-80
